Time;durP1;ratioP1;P1;durP2;ratioP2;P2;SDS_P1;SDS_P2;PMS_P1;PMS_P2;Temp;Humidity;BMP_temperature;BMP_pressure;BME280_temperature;BME280_humidity;BME280_pressure;Samples;Min_cycle;Max_cycle;Signal;HPM_P1;HPM_P2
2021/12/29 00:00:39;;;;;;;21.20;7.68;;;;;;;6.59;100.00;99552.47;10343640;28;20060;-66
2021/12/29 00:06:01;;;;;;;23.73;9.48;;;;;;;6.83;100.00;99567.16;10356711;28;20081;-67
2021/12/29 00:11:23;;;;;;;23.33;8.88;;;;;;;6.75;100.00;99564.28;10356288;28;20045;-66
2021/12/29 00:16:45;;;;;;;21.17;9.00;;;;;;;6.78;100.00;99570.06;10403858;28;20057;-66
2021/12/29 00:22:20;;;;;;;;;;;;;;;6.70;100.00;99581.88;10433955;28;20045;-66
2021/12/29 00:27:42;;;;;;;27.17;9.48;;;;;;;6.71;100.00;99584.34;10421110;28;19927;-66
2021/12/29 00:33:04;;;;;;;21.00;10.13;;;;;;;6.75;100.00;99601.34;10341970;28;20046;-66
2021/12/29 00:38:26;;;;;;;22.48;9.82;;;;;;;6.73;100.00;99613.56;10373883;28;20080;-66
2021/12/29 00:43:47;;;;;;;30.67;10.88;;;;;;;6.68;100.00;99626.00;10355554;28;20058;-67
2021/12/29 00:49:10;;;;;;;23.48;9.93;;;;;;;6.77;100.00;99640.06;10342956;28;20470;-66
2021/12/29 00:54:32;;;;;;;24.48;9.98;;;;;;;6.72;100.00;99636.97;10355704;28;20057;-66
2021/12/29 00:59:54;;;;;;;25.15;9.48;;;;;;;6.71;100.00;99645.69;10365997;28;20050;-66
2021/12/29 01:05:17;;;;;;;19.77;10.00;;;;;;;6.76;100.00;99653.97;10407214;28;20064;-65
2021/12/29 01:10:42;;;;;;;28.13;10.85;;;;;;;6.72;100.00;99668.88;10432679;28;20057;-65
2021/12/29 01:21:31;;;;;;;27.40;11.48;;;;;;;6.81;100.00;99682.97;10445745;28;20053;-67
2021/12/29 01:26:54;;;;;;;25.17;11.13;;;;;;;6.78;100.00;99684.00;10449799;28;20051;-67
2021/12/29 01:32:16;;;;;;;38.83;12.13;;;;;;;6.70;100.00;99690.63;10388368;28;20141;-66
2021/12/29 01:37:39;;;;;;;31.58;11.35;;;;;;;6.73;100.00;99706.78;10385681;28;20061;-66
2021/12/29 01:43:01;;;;;;;40.47;12.40;;;;;;;6.79;100.00;99727.09;10368846;28;20053;-66
2021/12/29 01:48:23;;;;;;;31.17;12.23;;;;;;;6.71;100.00;99737.13;10370201;28;20058;-66
2021/12/29 01:54:01;;;;;;;31.77;12.50;;;;;;;6.65;100.00;99741.06;10367793;28;20049;-66
2021/12/29 01:59:26;;;;;;;37.13;12.52;;;;;;;6.68;100.00;99760.66;10367566;28;20053;-66
2021/12/29 02:04:48;;;;;;;30.38;12.50;;;;;;;6.76;100.00;99768.72;10387922;28;20495;-67
2021/12/29 02:10:12;;;;;;;39.28;12.90;;;;;;;6.76;100.00;99779.09;10346747;28;20061;-66
2021/12/29 02:15:34;;;;;;;40.78;14.25;;;;;;;6.69;100.00;99793.34;10442405;28;20521;-66
2021/12/29 02:20:56;;;;;;;39.22;14.50;;;;;;;6.67;100.00;99794.41;10430944;28;20053;-66
2021/12/29 02:26:19;;;;;;;38.03;14.60;;;;;;;6.79;100.00;99809.97;10437625;28;20045;-66
2021/12/29 02:31:42;;;;;;;31.77;13.13;;;;;;;6.70;100.00;99810.56;10410509;28;20515;-66
2021/12/29 02:37:04;;;;;;;30.05;13.13;;;;;;;6.71;100.00;99825.16;10409876;28;20050;-66
2021/12/29 02:42:29;;;;;;;38.42;14.05;;;;;;;6.60;100.00;99823.38;10359900;28;20050;-66
2021/12/29 02:47:51;;;;;;;24.00;12.70;;;;;;;6.69;100.00;99839.97;10376932;28;20049;-66
2021/12/29 02:53:14;;;;;;;28.92;14.55;;;;;;;6.67;100.00;99850.53;10375911;28;20041;-66
2021/12/29 02:58:35;;;;;;;31.17;13.57;;;;;;;6.69;100.00;99850.31;10346461;28;20049;-66
2021/12/29 03:03:58;;;;;;;36.28;14.65;;;;;;;6.63;100.00;99855.06;10406487;28;20045;-66
2021/12/29 03:09:21;;;;;;;37.13;15.32;;;;;;;6.71;100.00;99871.78;10398576;28;20053;-66
2021/12/29 03:14:56;;;;;;;33.95;16.17;;;;;;;6.63;100.00;99865.41;10417749;28;20137;-66
2021/12/29 03:20:17;;;;;;;35.25;14.57;;;;;;;6.68;100.00;99878.09;10391252;28;20045;-66
2021/12/29 03:25:40;;;;;;;31.08;15.32;;;;;;;6.72;100.00;99890.75;10398041;28;20053;-66
2021/12/29 03:31:02;;;;;;;34.90;15.45;;;;;;;6.69;100.00;99885.75;10412868;28;20046;-66
2021/12/29 03:36:24;;;;;;;37.70;14.95;;;;;;;6.51;100.00;99902.44;10424789;28;20063;-66
2021/12/29 03:41:45;;;;;;;31.55;15.50;;;;;;;6.59;100.00;99909.72;10419609;28;20060;-66
2021/12/29 03:47:07;;;;;;;38.08;15.95;;;;;;;6.52;100.00;99913.66;10457151;28;20064;-66
2021/12/29 03:52:29;;;;;;;29.08;15.00;;;;;;;6.51;100.00;99917.16;10424476;28;20044;-66
2021/12/29 03:57:51;;;;;;;33.85;15.45;;;;;;;6.57;100.00;99921.94;10406134;28;20068;-66
2021/12/29 04:03:12;;;;;;;42.47;16.25;;;;;;;6.52;100.00;99929.19;10371142;28;20050;-66
2021/12/29 04:08:39;;;;;;;47.33;15.77;;;;;;;6.51;100.00;99943.06;10372069;28;20390;-66
2021/12/29 04:14:05;;;;;;;41.60;16.92;;;;;;;6.50;100.00;99951.75;10422805;28;20468;-66
2021/12/29 04:19:40;;;;;;;53.90;17.90;;;;;;;6.50;100.00;99954.31;10418134;28;20092;-66
2021/12/29 04:25:03;;;;;;;42.45;17.05;;;;;;;6.43;100.00;99971.16;10370281;28;20054;-65
2021/12/29 04:30:25;;;;;;;31.88;16.70;;;;;;;6.52;100.00;99974.00;10396125;28;20053;-66
2021/12/29 04:35:47;;;;;;;33.42;15.95;;;;;;;6.51;100.00;99980.09;10365794;28;20051;-66
2021/12/29 04:41:09;;;;;;;26.85;15.23;;;;;;;6.54;100.00;99982.50;10355664;28;20137;-66
2021/12/29 04:46:44;;;;;;;26.20;14.30;;;;;;;6.49;100.00;99997.50;10356080;28;20049;-66
2021/12/29 04:52:10;;;;;;;24.37;14.30;;;;;;;6.47;100.00;100004.53;10388211;28;20057;-66
2021/12/29 04:57:32;;;;;;;;;;;;;;;6.50;100.00;100008.69;10375214;28;20320;-66
2021/12/29 05:02:57;;;;;;;21.02;13.23;;;;;;;6.49;100.00;100022.56;10355725;28;19929;-66
2021/12/29 05:08:26;;;;;;;23.20;12.70;;;;;;;6.50;100.00;100016.47;10355530;28;20100;-66
2021/12/29 05:13:48;;;;;;;20.33;13.15;;;;;;;6.53;100.00;100040.38;10384164;28;20056;-66
2021/12/29 05:19:10;;;;;;;17.35;12.05;;;;;;;6.56;100.00;100034.19;10401943;28;20054;-66
2021/12/29 05:24:32;;;;;;;26.00;12.65;;;;;;;6.55;100.00;100027.38;10354846;28;20096;-66
2021/12/29 05:29:54;;;;;;;22.38;12.95;;;;;;;6.59;100.00;100028.81;10362173;28;20041;-66
2021/12/29 05:35:16;;;;;;;25.00;12.88;;;;;;;6.51;100.00;100036.25;10395850;28;20053;-65
2021/12/29 05:40:38;;;;;;;29.52;13.90;;;;;;;6.52;100.00;100048.25;10362807;28;20147;-66
2021/12/29 05:46:00;;;;;;;28.67;13.48;;;;;;;6.55;100.00;100058.44;10362905;28;20046;-66
2021/12/29 05:51:22;;;;;;;32.88;12.07;;;;;;;6.43;100.00;100075.53;10382951;28;20059;-68
2021/12/29 05:56:43;;;;;;;28.58;14.63;;;;;;;6.53;100.00;100075.81;10381415;28;20128;-67
2021/12/29 06:02:05;;;;;;;49.03;14.40;;;;;;;6.49;100.00;100080.31;10362478;28;20062;-66
2021/12/29 06:07:27;;;;;;;32.53;14.05;;;;;;;6.53;100.00;100088.75;10362097;28;20057;-66
2021/12/29 06:12:49;;;;;;;37.65;14.02;;;;;;;6.50;100.00;100096.69;10408986;28;20048;-66
2021/12/29 06:18:10;;;;;;;39.13;14.25;;;;;;;6.52;100.00;100115.56;10407209;28;20045;-67
2021/12/29 06:23:32;;;;;;;34.78;13.80;;;;;;;6.48;100.00;100132.19;10373450;28;20054;-66
2021/12/29 06:28:54;;;;;;;28.40;13.38;;;;;;;6.53;100.00;100135.38;10398184;28;20497;-66
2021/12/29 06:34:16;;;;;;;30.15;13.55;;;;;;;6.54;100.00;100149.97;10387848;28;20069;-66
2021/12/29 06:39:39;;;;;;;38.42;13.55;;;;;;;6.53;100.00;100161.25;10406272;28;20057;-66
2021/12/29 06:45:01;;;;;;;37.78;13.48;;;;;;;6.47;100.00;100172.81;10399458;28;20053;-67
2021/12/29 06:50:23;;;;;;;30.75;13.07;;;;;;;6.55;100.00;100196.47;10388740;28;20839;-66
2021/12/29 06:55:45;;;;;;;39.38;13.27;;;;;;;6.63;100.00;100196.03;10402304;28;20050;-67
2021/12/29 07:01:06;;;;;;;42.95;13.50;;;;;;;6.59;100.00;100189.34;10360478;28;20498;-66
2021/12/29 07:06:28;;;;;;;37.55;12.63;;;;;;;6.63;100.00;100202.03;10346779;28;20186;-66
2021/12/29 07:11:51;;;;;;;44.35;11.90;;;;;;;6.62;100.00;100215.91;10385531;28;20041;-66
2021/12/29 07:17:12;;;;;;;24.90;11.82;;;;;;;6.66;100.00;100227.75;10411846;28;20053;-67
2021/12/29 07:22:34;;;;;;;26.65;12.13;;;;;;;6.63;100.00;100247.81;10364155;28;20057;-65
2021/12/29 07:27:56;;;;;;;30.77;11.32;;;;;;;6.72;100.00;100255.88;10369386;28;20052;-66
2021/12/29 07:33:18;;;;;;;29.48;11.00;;;;;;;6.68;100.00;100268.19;10357498;28;20046;-68
2021/12/29 07:38:40;;;;;;;28.75;10.73;;;;;;;6.75;100.00;100273.84;10345079;28;20068;-66
2021/12/29 07:44:04;;;;;;;22.67;9.90;;;;;;;6.78;100.00;100278.81;10357592;28;20069;-66
2021/12/29 07:49:27;;;;;;;29.00;10.43;;;;;;;6.64;100.00;100285.72;10345554;28;20418;-66
2021/12/29 07:54:49;;;;;;;28.52;10.20;;;;;;;6.72;100.00;100294.72;10434020;28;20390;-65
2021/12/29 08:00:12;;;;;;;37.78;11.95;;;;;;;6.74;100.00;100298.91;10385335;28;20056;-65
2021/12/29 08:05:34;;;;;;;35.92;13.13;;;;;;;6.69;100.00;100303.50;10377628;28;20050;-65
2021/12/29 08:10:55;;;;;;;60.50;13.93;;;;;;;6.70;100.00;100307.75;10355744;28;20529;-65
2021/12/29 08:16:17;;;;;;;72.63;15.15;;;;;;;6.66;100.00;100309.78;10400586;28;20064;-65
2021/12/29 08:21:39;;;;;;;89.05;14.98;;;;;;;6.77;100.00;100303.91;10410984;28;20041;-66
2021/12/29 08:27:01;;;;;;;48.38;15.55;;;;;;;6.80;100.00;100287.34;10362210;28;20056;-65
2021/12/29 08:32:22;;;;;;;78.55;16.40;;;;;;;6.77;100.00;100309.09;10382710;28;20424;-66
2021/12/29 08:37:44;;;;;;;47.75;15.15;;;;;;;6.79;100.00;100324.53;10403875;28;20053;-65
2021/12/29 08:43:06;;;;;;;47.38;15.48;;;;;;;6.83;100.00;100328.63;10341878;28;20060;-65
2021/12/29 08:48:28;;;;;;;69.55;16.60;;;;;;;6.83;100.00;100347.59;10351320;28;20049;-65
2021/12/29 08:53:50;;;;;;;47.58;15.68;;;;;;;6.90;100.00;100356.69;10368054;28;20056;-65
2021/12/29 08:59:13;;;;;;;63.58;16.70;;;;;;;6.80;100.00;100355.53;10357479;28;20406;-66
2021/12/29 09:04:36;;;;;;;45.97;16.15;;;;;;;6.91;100.00;100347.97;10348370;28;20449;-66
2021/12/29 09:09:57;;;;;;;58.10;17.30;;;;;;;6.90;100.00;100356.69;10356464;28;20081;-65
2021/12/29 09:15:20;;;;;;;64.00;18.13;;;;;;;6.90;100.00;100359.25;10388040;28;20129;-65
2021/12/29 09:20:45;;;;;;;54.22;17.35;;;;;;;6.95;100.00;100365.03;10370385;28;20049;-65
2021/12/29 09:26:11;;;;;;;48.90;16.33;;;;;;;6.91;100.00;100379.06;10375200;28;20140;-65
2021/12/29 09:31:33;;;;;;;;;;;;;;;7.01;100.00;100406.13;10359837;28;20049;-65
2021/12/29 09:36:55;;;;;;;52.80;17.48;;;;;;;6.98;100.00;100401.13;10364314;28;19928;-66
2021/12/29 09:42:17;;;;;;;46.63;17.65;;;;;;;6.95;100.00;100395.28;10363858;28;20050;-66
2021/12/29 09:47:39;;;;;;;45.30;17.70;;;;;;;7.01;100.00;100393.16;10376628;28;20245;-66
2021/12/29 09:53:01;;;;;;;46.40;17.55;;;;;;;6.99;100.00;100405.38;10384665;28;20132;-68
2021/12/29 09:58:22;;;;;;;42.80;17.30;;;;;;;7.00;100.00;100401.84;10392941;28;20057;-66
2021/12/29 10:03:44;;;;;;;41.28;16.85;;;;;;;7.11;100.00;100417.66;10348603;28;20383;-66
2021/12/29 10:09:15;;;;;;;39.70;17.48;;;;;;;7.12;100.00;100419.31;10362110;28;20065;-67
2021/12/29 10:14:38;;;;;;;41.03;17.13;;;;;;;7.18;100.00;100429.31;10425636;28;20493;-66
2021/12/29 10:20:10;;;;;;;40.08;16.77;;;;;;;7.11;100.00;100435.78;10387492;28;20045;-67
2021/12/29 10:25:32;;;;;;;43.03;16.52;;;;;;;7.15;100.00;100424.31;10387602;28;20041;-67
2021/12/29 10:31:11;;;;;;;49.40;17.05;;;;;;;7.14;100.00;100412.25;10399906;28;20061;-67
2021/12/29 10:36:40;;;;;;;51.20;16.52;;;;;;;7.09;100.00;100403.94;10376508;28;20503;-67
2021/12/29 10:42:13;;;;;;;57.33;16.25;;;;;;;7.19;100.00;100399.06;10369367;28;20046;-67
2021/12/29 10:47:38;;;;;;;56.92;17.40;;;;;;;7.27;100.00;100387.34;10349124;28;20057;-66
2021/12/29 10:53:00;;;;;;;65.10;17.08;;;;;;;7.33;100.00;100394.75;10366894;28;20054;-67
2021/12/29 10:58:27;;;;;;;75.75;17.98;;;;;;;7.40;100.00;100409.03;10348867;28;20053;-67
2021/12/29 11:03:53;;;;;;;70.78;18.60;;;;;;;7.34;100.00;100417.16;10348166;28;20060;-65
2021/12/29 11:09:23;;;;;;;67.43;17.38;;;;;;;7.40;100.00;100429.78;10371601;28;20136;-67
2021/12/29 11:14:45;;;;;;;95.35;17.90;;;;;;;7.43;100.00;100433.94;10361175;28;20046;-67
2021/12/29 11:20:07;;;;;;;66.80;16.75;;;;;;;7.46;100.00;100450.13;10357628;28;20041;-67
2021/12/29 11:25:30;;;;;;;77.80;15.65;;;;;;;7.40;100.00;100440.16;10379449;28;20065;-67
2021/12/29 11:30:54;;;;;;;120.15;16.20;;;;;;;7.44;100.00;100426.06;10358821;28;20052;-67
2021/12/29 11:36:21;;;;;;;64.95;15.48;;;;;;;7.53;100.00;100435.06;10377746;28;20057;-67
2021/12/29 11:41:43;;;;;;;59.72;14.73;;;;;;;7.50;100.00;100443.00;10383276;28;20474;-67
2021/12/29 11:47:06;;;;;;;64.53;13.80;;;;;;;7.48;100.00;100453.50;10362828;28;20060;-67
2021/12/29 11:52:46;;;;;;;61.20;16.00;;;;;;;7.59;100.00;100456.28;10366171;28;20691;-67
2021/12/29 11:58:13;;;;;;;44.65;14.32;;;;;;;7.61;100.00;100464.81;10391135;28;20057;-66
2021/12/29 12:03:53;;;;;;;53.22;14.85;;;;;;;7.50;100.00;100464.59;10386788;28;20056;-67
2021/12/29 12:09:22;;;;;;;59.97;16.10;;;;;;;7.61;100.00;100472.59;10357321;28;20129;-66
2021/12/29 12:14:48;;;;;;;53.13;15.20;;;;;;;7.55;100.00;100470.38;10409307;28;20048;-66
2021/12/29 12:20:16;;;;;;;57.90;16.38;;;;;;;7.64;100.00;100465.47;10411483;28;20057;-66
2021/12/29 12:25:38;;;;;;;40.65;15.00;;;;;;;7.69;100.00;100473.00;10379852;28;20056;-67
2021/12/29 12:31:00;;;;;;;35.42;16.90;;;;;;;7.79;100.00;100476.72;10383363;28;20045;-67
2021/12/29 12:36:31;;;;;;;31.02;14.10;;;;;;;7.74;100.00;100471.81;10372055;28;20553;-67
2021/12/29 12:41:56;;;;;;;32.42;15.15;;;;;;;7.83;100.00;100460.06;10356182;28;20521;-67
2021/12/29 12:47:18;;;;;;;39.65;13.63;;;;;;;7.85;100.00;100463.41;10356744;28;20482;-67
2021/12/29 12:52:43;;;;;;;40.17;15.40;;;;;;;7.83;100.00;100454.88;10344734;28;20064;-67
2021/12/29 12:58:10;;;;;;;35.17;15.70;;;;;;;7.95;100.00;100462.72;10356055;28;20057;-67
2021/12/29 13:03:32;;;;;;;30.85;14.73;;;;;;;7.98;100.00;100474.72;10354854;28;20061;-67
2021/12/29 13:09:00;;;;;;;30.35;14.38;;;;;;;7.97;100.00;100473.03;10376642;28;20054;-67
2021/12/29 13:14:27;;;;;;;30.75;14.50;;;;;;;8.00;100.00;100472.88;10418866;28;20081;-67
2021/12/29 13:19:49;;;;;;;26.73;13.50;;;;;;;8.05;100.00;100465.63;10357085;28;20080;-67
2021/12/29 13:25:20;;;;;;;27.85;12.73;;;;;;;8.12;100.00;100456.56;10377469;28;20458;-67
2021/12/29 13:30:45;;;;;;;24.95;12.43;;;;;;;8.15;100.00;100456.38;10398924;28;20736;-67
2021/12/29 13:36:07;;;;;;;23.95;11.50;;;;;;;8.18;100.00;100456.19;10371465;28;20059;-67
2021/12/29 13:41:32;;;;;;;25.40;11.63;;;;;;;8.17;100.00;100451.94;10346816;28;20042;-67
2021/12/29 13:46:54;;;;;;;22.60;11.60;;;;;;;8.24;100.00;100446.28;10355416;28;20512;-67
2021/12/29 13:52:16;;;;;;;22.90;10.50;;;;;;;8.38;100.00;100461.03;10356644;28;20050;-67
2021/12/29 13:57:38;;;;;;;24.65;10.75;;;;;;;8.40;100.00;100464.34;10357375;28;20053;-67
2021/12/29 14:02:59;;;;;;;24.25;11.15;;;;;;;8.32;100.00;100463.97;10402488;28;20045;-69
2021/12/29 14:08:21;;;;;;;24.33;11.52;;;;;;;8.32;100.00;100470.03;10396109;28;20570;-69
2021/12/29 14:13:49;;;;;;;23.15;10.63;;;;;;;8.33;100.00;100444.88;10378201;28;20050;-70
2021/12/29 14:19:13;;;;;;;19.75;9.70;;;;;;;8.25;100.00;100431.53;10375950;28;20056;-68
2021/12/29 14:24:38;;;;;;;24.88;10.20;;;;;;;8.28;100.00;100427.00;10357428;28;20060;-71
2021/12/29 14:30:11;;;;;;;18.27;9.30;;;;;;;8.32;100.00;100435.41;10405716;28;20144;-72
2021/12/29 14:35:36;;;;;;;19.70;9.23;;;;;;;8.33;100.00;100445.72;10393416;28;20048;-69
2021/12/29 14:40:58;;;;;;;17.48;9.50;;;;;;;8.27;100.00;100447.88;10376896;28;20585;-69
2021/12/29 14:46:20;;;;;;;18.85;9.27;;;;;;;8.27;100.00;100455.66;10394226;28;20052;-69
2021/12/29 14:51:50;;;;;;;19.33;10.13;;;;;;;8.26;100.00;100465.19;10417672;28;20045;-68
2021/12/29 14:57:15;;;;;;;21.23;9.88;;;;;;;8.24;100.00;100481.81;10376972;28;20053;-69
2021/12/29 15:02:41;;;;;;;20.20;10.45;;;;;;;8.22;100.00;100471.53;10366952;28;20092;-69
2021/12/29 15:08:04;;;;;;;21.20;9.75;;;;;;;8.12;100.00;100452.19;10380213;28;20045;-73
2021/12/29 15:13:36;;;;;;;26.33;11.27;;;;;;;8.20;100.00;100447.41;10374250;28;20042;-68
2021/12/29 15:18:58;;;;;;;20.83;10.38;;;;;;;8.12;100.00;100451.34;10388321;28;20129;-69
2021/12/29 15:24:22;;;;;;;23.92;11.52;;;;;;;8.12;100.00;100461.75;10356205;28;20046;-71
2021/12/29 15:29:45;;;;;;;21.83;10.43;;;;;;;8.02;100.00;100450.22;10386393;28;20111;-69
2021/12/29 15:35:08;;;;;;;19.48;10.27;;;;;;;8.04;100.00;100448.38;10362936;28;20653;-68
2021/12/29 15:40:30;;;;;;;18.45;9.23;;;;;;;8.10;100.00;100435.03;10375203;28;20047;-68
2021/12/29 15:45:52;;;;;;;20.05;9.95;;;;;;;8.04;100.00;100422.41;10367743;28;20056;-68
2021/12/29 15:51:14;;;;;;;20.02;10.40;;;;;;;8.03;100.00;100428.53;10352960;28;20050;-69
2021/12/29 15:56:35;;;;;;;17.58;10.07;;;;;;;7.96;100.00;100414.28;10362978;28;20528;-69
2021/12/29 16:01:58;;;;;;;19.67;10.55;;;;;;;8.06;100.00;100410.19;10377301;28;20143;-67
2021/12/29 16:07:20;;;;;;;23.40;10.90;;;;;;;8.01;100.00;100413.06;10363937;28;20081;-68
2021/12/29 16:12:42;;;;;;;25.75;11.32;;;;;;;7.97;100.00;100410.75;10367849;28;20041;-68
2021/12/29 16:18:04;;;;;;;23.85;11.13;;;;;;;8.02;100.00;100413.88;10343608;28;20056;-68
2021/12/29 16:23:26;;;;;;;20.95;11.88;;;;;;;8.01;100.00;100422.59;10356750;28;20046;-68
2021/12/29 16:28:48;;;;;;;26.55;12.90;;;;;;;7.95;100.00;100443.75;10361525;28;20057;-69
2021/12/29 16:34:10;;;;;;;23.40;12.77;;;;;;;8.01;100.00;100412.22;10364729;28;20049;-69
2021/12/29 16:39:31;;;;;;;23.05;11.60;;;;;;;7.89;100.00;100384.41;10355618;28;20049;-68
2021/12/29 16:44:54;;;;;;;29.95;12.90;;;;;;;8.00;100.00;100366.47;10368565;28;20507;-70
2021/12/29 16:50:19;;;;;;;34.55;12.68;;;;;;;7.95;100.00;100360.72;10373579;28;20136;-68
2021/12/29 16:55:42;;;;;;;30.67;12.48;;;;;;;7.82;100.00;100331.25;10365170;28;20045;-68
2021/12/29 17:01:05;;;;;;;24.83;13.10;;;;;;;7.99;100.00;100321.50;10380791;28;20076;-68
2021/12/29 17:06:27;;;;;;;27.88;13.10;;;;;;;7.83;100.00;100300.00;10395739;28;20050;-67
2021/12/29 17:11:48;;;;;;;27.77;13.77;;;;;;;7.92;100.00;100314.19;10375928;28;20046;-67
2021/12/29 17:17:11;;;;;;;26.77;13.50;;;;;;;7.95;100.00;100326.97;10358415;28;20050;-67
2021/12/29 17:22:35;;;;;;;24.08;13.60;;;;;;;8.03;100.00;100332.50;10355981;28;20056;-66
2021/12/29 17:27:57;;;;;;;29.25;14.68;;;;;;;7.95;100.00;100352.91;10360946;28;20056;-67
2021/12/29 17:33:18;;;;;;;22.25;13.50;;;;;;;8.02;100.00;100356.78;10352724;28;20056;-68
2021/12/29 17:38:40;;;;;;;24.98;13.52;;;;;;;8.04;100.00;100358.38;10370219;28;20075;-69
2021/12/29 17:44:02;;;;;;;26.35;13.57;;;;;;;7.89;100.00;100356.72;10409507;28;20681;-69
2021/12/29 17:49:24;;;;;;;24.65;12.98;;;;;;;8.00;100.00;100333.53;10396241;28;20053;-68
2021/12/29 17:54:46;;;;;;;27.05;14.13;;;;;;;7.88;100.00;100323.06;10389930;28;20531;-67
2021/12/29 18:00:12;;;;;;;30.65;14.38;;;;;;;7.91;100.00;100328.06;10392811;28;20068;-68
2021/12/29 18:05:34;;;;;;;25.55;14.85;;;;;;;7.92;100.00;100303.81;10347219;28;20061;-68
2021/12/29 18:10:55;;;;;;;24.00;14.00;;;;;;;7.88;100.00;100291.94;10370034;28;20490;-68
2021/12/29 18:16:21;;;;;;;27.70;15.50;;;;;;;7.99;100.00;100282.56;10372462;28;20050;-67
2021/12/29 18:21:44;;;;;;;35.55;15.73;;;;;;;7.93;100.00;100289.91;10367494;28;20042;-69
2021/12/29 18:27:06;;;;;;;29.02;14.55;;;;;;;7.82;100.00;100287.16;10359077;28;20070;-68
2021/12/29 18:32:27;;;;;;;27.23;16.58;;;;;;;7.88;100.00;100289.34;10359903;28;20049;-69
2021/12/29 18:37:49;;;;;;;28.98;17.67;;;;;;;7.91;100.00;100305.56;10359975;28;20046;-68
2021/12/29 18:43:12;;;;;;;28.80;17.88;;;;;;;7.92;100.00;100301.19;10362032;28;20042;-68
2021/12/29 18:48:33;;;;;;;33.63;19.23;;;;;;;7.99;100.00;100310.28;10394430;28;20045;-69
2021/12/29 18:53:55;;;;;;;35.17;19.48;;;;;;;8.03;100.00;100311.75;10410255;28;20083;-68
2021/12/29 18:59:16;;;;;;;32.42;20.20;;;;;;;8.00;100.00;100275.63;10361234;28;20050;-68
2021/12/29 19:04:38;;;;;;;33.75;21.17;;;;;;;8.04;100.00;100277.06;10385951;28;20050;-68
2021/12/29 19:10:00;;;;;;;34.80;21.80;;;;;;;7.92;100.00;100276.09;10407455;28;20532;-66
2021/12/29 19:15:24;;;;;;;36.33;21.67;;;;;;;8.00;100.00;100275.63;10371588;28;20050;-67
2021/12/29 19:20:46;;;;;;;38.05;20.80;;;;;;;7.97;100.00;100260.25;10348047;28;20054;-67
2021/12/29 19:26:08;;;;;;;36.33;21.73;;;;;;;7.90;100.00;100243.38;10363063;28;20050;-68
2021/12/29 19:31:30;;;;;;;35.45;20.63;;;;;;;8.03;100.00;100228.69;10366485;28;20050;-67
2021/12/29 19:36:51;;;;;;;33.35;21.08;;;;;;;7.88;100.00;100214.09;10372565;28;20046;-67
2021/12/29 19:42:19;;;;;;;29.42;19.40;;;;;;;7.99;100.00;100214.28;10350135;28;20402;-67
2021/12/29 19:47:41;;;;;;;33.15;20.63;;;;;;;7.97;100.00;100239.47;10367650;28;20053;-68
2021/12/29 19:53:06;;;;;;;31.33;19.98;;;;;;;7.98;100.00;100257.53;10380215;28;20049;-67
2021/12/29 19:58:28;;;;;;;31.50;19.92;;;;;;;8.04;100.00;100258.91;10367308;28;20525;-67
2021/12/29 20:03:50;;;;;;;32.45;20.35;;;;;;;8.00;100.00;100280.81;10372007;28;20049;-67
2021/12/29 20:09:12;;;;;;;26.95;19.83;;;;;;;8.07;100.00;100289.88;10386636;28;20457;-67
2021/12/29 20:14:35;;;;;;;33.63;20.48;;;;;;;8.15;100.00;100313.59;10399198;28;20486;-68
2021/12/29 20:19:57;;;;;;;29.85;19.13;;;;;;;8.09;100.00;100308.78;10356431;28;20057;-68
2021/12/29 20:25:18;;;;;;;31.20;20.23;;;;;;;8.09;100.00;100295.78;10359876;28;20397;-67
2021/12/29 20:30:43;;;;;;;29.42;19.83;;;;;;;8.15;100.00;100306.63;10413577;28;20049;-67
2021/12/29 20:36:05;;;;;;;27.77;18.88;;;;;;;8.14;100.00;100293.75;10402314;28;20053;-67
2021/12/29 20:41:31;;;;;;;26.90;19.27;;;;;;;8.17;100.00;100298.75;10437980;28;20436;-68
2021/12/29 20:46:53;;;;;;;24.85;17.80;;;;;;;8.16;100.00;100281.53;10359846;28;20058;-67
2021/12/29 20:52:15;;;;;;;31.33;19.05;;;;;;;8.22;100.00;100291.53;10390795;28;20045;-68
2021/12/29 20:57:37;;;;;;;26.08;17.98;;;;;;;8.24;100.00;100292.28;10375634;28;20051;-67
2021/12/29 21:02:59;;;;;;;30.63;18.67;;;;;;;8.28;100.00;100309.31;10361079;28;20077;-68
2021/12/29 21:08:22;;;;;;;25.95;18.73;;;;;;;8.31;100.00;100329.88;10358205;28;20061;-67
2021/12/29 21:13:43;;;;;;;22.80;17.77;;;;;;;8.42;100.00;100345.63;10420627;28;20052;-68
2021/12/29 21:19:05;;;;;;;25.92;17.35;;;;;;;8.46;100.00;100321.13;10368622;28;20519;-67
2021/12/29 21:24:27;;;;;;;24.13;18.08;;;;;;;8.54;100.00;100324.91;10404112;28;20516;-68
2021/12/29 21:29:48;;;;;;;26.00;18.27;;;;;;;8.53;100.00;100330.19;10382193;28;20058;-67
2021/12/29 21:35:12;;;;;;;24.35;18.48;;;;;;;8.48;100.00;100345.22;10362812;28;20452;-68
2021/12/29 21:40:34;;;;;;;23.88;17.45;;;;;;;8.56;100.00;100355.97;10365850;28;20061;-67
2021/12/29 21:45:56;;;;;;;24.98;18.02;;;;;;;8.55;100.00;100364.72;10363835;28;20046;-67
2021/12/29 21:51:17;;;;;;;25.23;16.77;;;;;;;8.62;100.00;100379.81;10381597;28;20052;-67
2021/12/29 21:56:39;;;;;;;22.27;17.35;;;;;;;8.67;100.00;100388.97;10357729;28;20133;-68
2021/12/29 22:02:04;;;;;;;23.45;18.52;;;;;;;8.70;100.00;100386.19;10368630;28;20049;-67
2021/12/29 22:07:26;;;;;;;26.00;18.57;;;;;;;8.75;100.00;100386.69;10355969;28;20057;-68
2021/12/29 22:12:47;;;;;;;24.23;18.05;;;;;;;8.81;100.00;100398.47;10367537;28;20038;-68
2021/12/29 22:18:09;;;;;;;34.80;18.25;;;;;;;8.90;100.00;100396.09;10392204;28;20063;-68
2021/12/29 22:23:31;;;;;;;24.80;17.33;;;;;;;8.98;100.00;100412.06;10366338;28;20498;-67
2021/12/29 22:28:54;;;;;;;29.58;17.92;;;;;;;9.08;100.00;100420.94;10372819;28;20053;-67
2021/12/29 22:34:20;;;;;;;27.25;17.77;;;;;;;9.10;100.00;100419.06;10355456;28;20037;-68
2021/12/29 22:39:45;;;;;;;25.48;16.60;;;;;;;9.15;100.00;100431.75;10367179;28;20054;-67
2021/12/29 22:45:10;;;;;;;26.10;17.05;;;;;;;9.16;100.00;100443.81;10354592;28;20177;-67
2021/12/29 22:50:38;;;;;;;26.15;16.75;;;;;;;9.14;100.00;100440.50;10361307;28;20567;-68
2021/12/29 22:56:08;;;;;;;24.27;15.90;;;;;;;9.13;100.00;100470.03;10412602;28;20046;-67
2021/12/29 23:01:31;;;;;;;26.48;16.80;;;;;;;9.25;100.00;100477.88;10353957;28;20061;-67
2021/12/29 23:06:54;;;;;;;25.25;16.13;;;;;;;9.28;100.00;100495.91;10353757;28;20127;-67
2021/12/29 23:12:15;;;;;;;28.48;15.43;;;;;;;9.32;100.00;100497.34;10364813;28;20049;-67
2021/12/29 23:17:37;;;;;;;25.58;15.27;;;;;;;9.31;100.00;100513.91;10398082;28;20532;-67
2021/12/29 23:23:07;;;;;;;26.95;14.38;;;;;;;9.31;100.00;100521.72;10378427;28;20041;-67
2021/12/29 23:28:30;;;;;;;26.95;14.15;;;;;;;9.31;100.00;100513.06;10345571;28;20057;-66
2021/12/29 23:33:52;;;;;;;29.70;13.48;;;;;;;9.25;100.00;100539.44;10355286;28;20508;-67
2021/12/29 23:39:13;;;;;;;33.08;13.38;;;;;;;9.22;100.00;100553.47;10384741;28;20057;-66
2021/12/29 23:44:35;;;;;;;30.65;12.75;;;;;;;9.34;100.00;100555.31;10359167;28;20055;-66
2021/12/29 23:49:57;;;;;;;32.63;12.20;;;;;;;9.28;100.00;100560.91;10389382;28;20041;-66
2021/12/29 23:55:18;;;;;;;26.50;10.15;;;;;;;9.22;100.00;100574.28;10367246;28;20491;-66
